Observation data for Spur on 05/14/2018      Previous  Date  Next       Current Mesonet Observations  Soil Data  Daily Summary Page  Observations in Plain Language
KSP1 140500Z 15004KT 26/15 A2992 RMK A01 T02550150  RH  055%=      5-min Rain = 0
KSP1 140505Z 15005KT 25/15 A2991 RMK A01 T02540150  RH  055%=      5-min Rain = 0
KSP1 140510Z 15005KT 25/15 A2991 RMK A01 T02510150  RH  056%=      5-min Rain = 0
KSP1 140515Z 16005KT 25/15 A2991 RMK A01 T02490150  RH  057%=      5-min Rain = 0
KSP1 140520Z 16004KT 25/15 A2991 RMK A01 T02470150  RH  057%=      5-min Rain = 0
KSP1 140525Z 16005KT 25/15 A2991 RMK A01 T02450150  RH  058%=      5-min Rain = 0
KSP1 140530Z 16006KT 25/15 A2991 RMK A01 T02460150  RH  058%=      5-min Rain = 0
KSP1 140535Z 17006KT 25/15 A2991 RMK A01 T02480150  RH  057%=      5-min Rain = 0
KSP1 140540Z 16006KT 25/15 A2991 RMK A01 T02470150  RH  057%=      5-min Rain = 0
KSP1 140545Z 17005KT 25/15 A2991 RMK A01 T02470150  RH  057%=      5-min Rain = 0
KSP1 140550Z 16005KT 25/15 A299 RMK A01 T02470150  RH  057%=      5-min Rain = 0
KSP1 140555Z 16005KT 25/15 A2991 RMK A01 T02470150  RH  057%=      5-min Rain = 0
KSP1 140600Z 16005KT 25/15 A2991 RMK A01 T02470150  RH  057%=      5-min Rain = 0
KSP1 140605Z 17005KT 25/15 A2991 RMK A01 T02460150  RH  057%=      5-min Rain = 0
KSP1 140610Z 16006KT 25/15 A2991 RMK A01 T02450150  RH  058%=      5-min Rain = 0
KSP1 140615Z 17006KT 24/15 A2991 RMK A01 T02430150  RH  058%=      5-min Rain = 0
KSP1 140620Z 17005KT 24/15 A299 RMK A01 T02420150  RH  059%=      5-min Rain = 0
KSP1 140625Z 16006KT 24/15 A299 RMK A01 T02420150  RH  059%=      5-min Rain = 0
KSP1 140630Z 17006KT 24/15 A299 RMK A01 T02420150  RH  059%=      5-min Rain = 0
KSP1 140635Z 17006KT 24/15 A299 RMK A01 T02410149  RH  059%=      5-min Rain = 0
KSP1 140640Z 17005KT 24/15 A299 RMK A01 T02410149  RH  059%=      5-min Rain = 0
KSP1 140645Z 17005KT 24/15 A299 RMK A01 T02400149  RH  059%=      5-min Rain = 0
KSP1 140650Z 17005KT 24/15 A299 RMK A01 T02390149  RH  059%=      5-min Rain = 0
KSP1 140655Z 17005KT 24/15 A299 RMK A01 T02400149  RH  059%=      5-min Rain = 0
KSP1 140700Z 18004KT 24/15 A299 RMK A01 T02410149  RH  059%=      5-min Rain = 0
KSP1 140705Z 18003KT 24/15 A299 RMK A01 T02390149  RH  059%=      5-min Rain = 0
KSP1 140710Z 18004KT 24/15 A2991 RMK A01 T02380148  RH  060%=      5-min Rain = 0
KSP1 140715Z 18003KT 24/15 A2991 RMK A01 T02360149  RH  061%=      5-min Rain = 0
KSP1 140720Z 18003KT 24/15 A299 RMK A01 T02350149  RH  061%=      5-min Rain = 0
KSP1 140725Z 19003KT 23/15 A299 RMK A01 T02340148  RH  061%=      5-min Rain = 0
KSP1 140730Z 20003KT 23/15 A299 RMK A01 T02320148  RH  062%=      5-min Rain = 0
KSP1 140735Z 19004KT 23/15 A299 RMK A01 T02300148  RH  063%=      5-min Rain = 0
KSP1 140740Z 19004KT 23/15 A299 RMK A01 T02290149  RH  063%=      5-min Rain = 0
KSP1 140745Z 19003KT 23/15 A299 RMK A01 T02290149  RH  063%=      5-min Rain = 0
KSP1 140750Z 19004KT 23/15 A299 RMK A01 T02280149  RH  064%=      5-min Rain = 0
KSP1 140755Z 18004KT 23/15 A299 RMK A01 T02270149  RH  064%=      5-min Rain = 0
KSP1 140800Z 18004KT 23/15 A299 RMK A01 T02250149  RH  065%=      5-min Rain = 0
KSP1 140805Z 18004KT 22/15 A299 RMK A01 T02220148  RH  066%=      5-min Rain = 0
KSP1 140810Z 19004KT 22/15 A299 RMK A01 T02190148  RH  067%=      5-min Rain = 0
KSP1 140815Z 20003KT 22/15 A2989 RMK A01 T02180148  RH  067%=      5-min Rain = 0
KSP1 140820Z 19004KT 22/15 A2989 RMK A01 T02180148  RH  067%=      5-min Rain = 0
KSP1 140825Z 17003KT 22/15 A2989 RMK A01 T02180149  RH  068%=      5-min Rain = 0
KSP1 140830Z 15003KT 22/15 A299 RMK A01 T02180148  RH  067%=      5-min Rain = 0
KSP1 140835Z 13003KT 22/15 A299 RMK A01 T02180148  RH  067%=      5-min Rain = 0
KSP1 140840Z 12003KT 22/15 A299 RMK A01 T02180149  RH  068%=      5-min Rain = 0
KSP1 140845Z 13003KT 22/15 A299 RMK A01 T02190149  RH  067%=      5-min Rain = 0
KSP1 140850Z 15003KT 22/15 A299 RMK A01 T02180149  RH  067%=      5-min Rain = 0
KSP1 140855Z 18004KT 22/15 A299 RMK A01 T02160148  RH  068%=      5-min Rain = 0
KSP1 140900Z 19005KT 21/15 A299 RMK A01 T02130147  RH  069%=      5-min Rain = 0
KSP1 140905Z 17004KT 21/15 A299 RMK A01 T02100146  RH  070%=      5-min Rain = 0
KSP1 140910Z 16003KT 21/15 A299 RMK A01 T02090147  RH  071%=      5-min Rain = 0
KSP1 140915Z 15003KT 21/15 A299 RMK A01 T02090146  RH  070%=      5-min Rain = 0
KSP1 140920Z 16003KT 21/15 A2991 RMK A01 T02080147  RH  071%=      5-min Rain = 0
KSP1 140925Z 17003KT 21/15 A2991 RMK A01 T02080147  RH  071%=      5-min Rain = 0
KSP1 140930Z 18004KT 21/15 A2991 RMK A01 T02080148  RH  072%=      5-min Rain = 0
KSP1 140935Z 18004KT 21/15 A2991 RMK A01 T02100149  RH  071%=      5-min Rain = 0
KSP1 140940Z 19003KT 21/15 A2991 RMK A01 T02110149  RH  071%=      5-min Rain = 0
KSP1 140945Z 20003KT 21/15 A2991 RMK A01 T02120149  RH  070%=      5-min Rain = 0
KSP1 140950Z 19003KT 21/15 A2991 RMK A01 T02120149  RH  070%=      5-min Rain = 0
KSP1 140955Z 17003KT 21/15 A2991 RMK A01 T02110149  RH  071%=      5-min Rain = 0
KSP1 141000Z 17003KT 21/15 A2991 RMK A01 T02100149  RH  071%=      5-min Rain = 0
KSP1 141005Z 16003KT 21/15 A2991 RMK A01 T02100150  RH  071%=      5-min Rain = 0
KSP1 141010Z 16004KT 21/15 A2991 RMK A01 T02100150  RH  072%=      5-min Rain = 0
KSP1 141015Z 16004KT 21/15 A2992 RMK A01 T02090151  RH  072%=      5-min Rain = 0
KSP1 141020Z 16004KT 21/15 A2992 RMK A01 T02090151  RH  073%=      5-min Rain = 0
KSP1 141025Z 16004KT 21/15 A2992 RMK A01 T02100153  RH  073%=      5-min Rain = 0
KSP1 141030Z 16004KT 21/15 A2992 RMK A01 T02110154  RH  073%=      5-min Rain = 0
KSP1 141035Z 15004KT 21/15 A2992 RMK A01 T02120154  RH  073%=      5-min Rain = 0
KSP1 141040Z 15004KT 21/16 A2992 RMK A01 T02130155  RH  073%=      5-min Rain = 0
KSP1 141045Z 15005KT 21/16 A2992 RMK A01 T02130155  RH  073%=      5-min Rain = 0
KSP1 141050Z 15005KT 21/16 A2992 RMK A01 T02130155  RH  073%=      5-min Rain = 0
KSP1 141055Z 16005KT 21/16 A2993 RMK A01 T02140155  RH  072%=      5-min Rain = 0
KSP1 141100Z 15005KT 21/16 A2992 RMK A01 T02140155  RH  072%=      5-min Rain = 0
KSP1 141105Z 15005KT 21/15 A2993 RMK A01 T02140154  RH  072%=      5-min Rain = 0
KSP1 141110Z 15005KT 21/15 A2992 RMK A01 T02130154  RH  072%=      5-min Rain = 0
KSP1 141115Z 15005KT 21/15 A2992 RMK A01 T02130153  RH  072%=      5-min Rain = 0
KSP1 141120Z 16005KT 21/15 A2992 RMK A01 T02130154  RH  072%=      5-min Rain = 0
KSP1 141125Z 17006KT 22/16 A2993 RMK A01 T02170155  RH  071%=      5-min Rain = 0
KSP1 141130Z 17006KT 22/16 A2993 RMK A01 T02190155  RH  070%=      5-min Rain = 0
KSP1 141135Z 16005KT 22/15 A2992 RMK A01 T02180154  RH  070%=      5-min Rain = 0
KSP1 141140Z 17005KT 22/15 A2993 RMK A01 T02170154  RH  071%=      5-min Rain = 0
KSP1 141145Z 17005KT 22/15 A2993 RMK A01 T02150154  RH  071%=      5-min Rain = 0
KSP1 141150Z 17005KT 21/15 A2993 RMK A01 T02140154  RH  071%=      5-min Rain = 0
KSP1 141155Z 16006KT 21/15 A2993 RMK A01 T02140154  RH  072%=      5-min Rain = 0
KSP1 141200Z 16006KT 21/15 A2993 RMK A01 T02140154  RH  072%=      5-min Rain = 0
KSP1 141205Z 17006KT 21/15 A2993 RMK A01 T02140154  RH  072%=      5-min Rain = 0
KSP1 141210Z 18005KT 21/15 A2994 RMK A01 T02140154  RH  072%=      5-min Rain = 0
KSP1 141215Z 17005KT 21/15 A2994 RMK A01 T02140153  RH  072%=      5-min Rain = 0
KSP1 141220Z 18005KT 21/15 A2994 RMK A01 T02140153  RH  072%=      5-min Rain = 0
KSP1 141225Z 17005KT 22/15 A2994 RMK A01 T02150154  RH  071%=      5-min Rain = 0
KSP1 141230Z 17005KT 22/16 A2994 RMK A01 T02170155  RH  071%=      5-min Rain = 0
KSP1 141235Z 17006KT 22/16 A2995 RMK A01 T02190157  RH  071%=      5-min Rain = 0
KSP1 141240Z 17006KT 22/16 A2995 RMK A01 T02240159  RH  070%=      5-min Rain = 0
KSP1 141245Z 18006KT 23/16 A2995 RMK A01 T02270160  RH  069%=      5-min Rain = 0
KSP1 141250Z 18007KT 23/16 A2995 RMK A01 T02300160  RH  068%=      5-min Rain = 0
KSP1 141255Z 18007KT 23/16 A2995 RMK A01 T02310161  RH  068%=      5-min Rain = 0
KSP1 141300Z 18007KT 23/16 A2995 RMK A01 T02320161  RH  068%=      5-min Rain = 0
KSP1 141305Z 18007KT 23/16 A2995 RMK A01 T02340162  RH  067%=      5-min Rain = 0
KSP1 141310Z 18009KT 24/16 A2995 RMK A01 T02350162  RH  067%=      5-min Rain = 0
KSP1 141315Z 18011KT 24/16 A2995 RMK A01 T02360163  RH  067%=      5-min Rain = 0
KSP1 141320Z 19011KT 24/16 A2994 RMK A01 T02370164  RH  067%=      5-min Rain = 0
KSP1 141325Z 19010KT 24/16 A2994 RMK A01 T02380164  RH  066%=      5-min Rain = 0
KSP1 141330Z 19010KT 24/16 A2994 RMK A01 T02390164  RH  066%=      5-min Rain = 0
KSP1 141335Z 19011KT 24/17 A2994 RMK A01 T02390165  RH  067%=      5-min Rain = 0
KSP1 141340Z 19012G17KT 24/17 A2995 RMK A01 T02390166  RH  067%=      5-min Rain = 0
KSP1 141345Z 19013KT 24/17 A2995 RMK A01 T02420168  RH  066%=      5-min Rain = 0
KSP1 141350Z 20015G21KT 25/17 A2995 RMK A01 T02460170  RH  066%=      5-min Rain = 0
KSP1 141355Z 20013G18KT 25/17 A2995 RMK A01 T02490171  RH  065%=      5-min Rain = 0
KSP1 141400Z 20013G18KT 25/17 A2995 RMK A01 T02510171  RH  064%=      5-min Rain = 0
KSP1 141405Z 21015KT 25/17 A2995 RMK A01 T02500171  RH  065%=      5-min Rain = 0
KSP1 141410Z 20013G19KT 25/17 A2995 RMK A01 T02520171  RH  064%=      5-min Rain = 0
KSP1 141415Z 20012G18KT 25/17 A2996 RMK A01 T02540172  RH  064%=      5-min Rain = 0
KSP1 141420Z 20013G18KT 26/17 A2996 RMK A01 T02560173  RH  063%=      5-min Rain = 0
KSP1 141425Z 19017KT 26/17 A2995 RMK A01 T02560172  RH  063%=      5-min Rain = 0
KSP1 141430Z 20014G20KT 25/17 A2995 RMK A01 T02540173  RH  064%=      5-min Rain = 0
KSP1 141435Z 20013G19KT 26/17 A2996 RMK A01 T02570173  RH  063%=      5-min Rain = 0
KSP1 141440Z 20013G21KT 26/17 A2996 RMK A01 T02560172  RH  063%=      5-min Rain = 0
KSP1 141445Z 21012G19KT 25/17 A2996 RMK A01 T02540172  RH  064%=      5-min Rain = 0
KSP1 141450Z 22012KT 26/17 A2996 RMK A01 T02560172  RH  063%=      5-min Rain = 0
KSP1 141455Z 22011G16KT 26/17 A2996 RMK A01 T02600173  RH  062%=      5-min Rain = 0
KSP1 141500Z 21013KT 26/17 A2996 RMK A01 T02620172  RH  061%=      5-min Rain = 0
KSP1 141505Z 21011KT 26/17 A2996 RMK A01 T02640172  RH  060%=      5-min Rain = 0
KSP1 141510Z 22009G14KT 26/17 A2996 RMK A01 T02640172  RH  060%=      5-min Rain = 0
KSP1 141515Z 20011G16KT 27/17 A2996 RMK A01 T02650172  RH  060%=      5-min Rain = 0
KSP1 141520Z 20010G15KT 27/17 A2996 RMK A01 T02700172  RH  058%=      5-min Rain = 0
KSP1 141525Z 23009G14KT 27/17 A2996 RMK A01 T02710171  RH  057%=      5-min Rain = 0
KSP1 141530Z 23010G15KT 27/17 A2996 RMK A01 T02730171  RH  056%=      5-min Rain = 0
KSP1 141535Z 22011KT 28/17 A2996 RMK A01 T02770169  RH  055%=      5-min Rain = 0
KSP1 141540Z 21008KT 28/17 A2996 RMK A01 T02790171  RH  055%=      5-min Rain = 0
KSP1 141545Z 21011KT 28/17 A2995 RMK A01 T02810170  RH  054%=      5-min Rain = 0
KSP1 141550Z 22012KT 28/17 A2995 RMK A01 T02790168  RH  053%=      5-min Rain = 0
KSP1 141555Z 21011G16KT 28/17 A2995 RMK A01 T02800169  RH  054%=      5-min Rain = 0
KSP1 141600Z 21011G18KT 28/17 A2995 RMK A01 T02840169  RH  052%=      5-min Rain = 0
KSP1 141605Z 21012G17KT 28/17 A2995 RMK A01 T02820169  RH  053%=      5-min Rain = 0
KSP1 141610Z 20011G16KT 29/17 A2995 RMK A01 T02850169  RH  052%=      5-min Rain = 0
KSP1 141615Z 21010G16KT 29/17 A2995 RMK A01 T02850170  RH  052%=      5-min Rain = 0
KSP1 141620Z 21012G19KT 29/17 A2995 RMK A01 T02880168  RH  051%=      5-min Rain = 0
KSP1 141625Z 22012KT 29/17 A2995 RMK A01 T02860170  RH  052%=      5-min Rain = 0
KSP1 141630Z 19010G17KT 29/17 A2995 RMK A01 T02860170  RH  052%=      5-min Rain = 0
KSP1 141635Z 19013G20KT 29/17 A2994 RMK A01 T02870168  RH  051%=      5-min Rain = 0
KSP1 141640Z 20009G16KT 29/17 A2994 RMK A01 T02890167  RH  050%=      5-min Rain = 0
KSP1 141645Z 18012G17KT 29/17 A2994 RMK A01 T02940166  RH  049%=      5-min Rain = 0
KSP1 141650Z 20011G17KT 29/16 A2994 RMK A01 T02930161  RH  047%=      5-min Rain = 0
KSP1 141655Z 21010G15KT 30/16 A2994 RMK A01 T02950161  RH  047%=      5-min Rain = 0
KSP1 141700Z 19011KT 30/16 A2994 RMK A01 T02970161  RH  046%=      5-min Rain = 0
KSP1 141705Z 22011KT 30/16 A2994 RMK A01 T02990157  RH  044%=      5-min Rain = 0
KSP1 141710Z 20009G14KT 30/16 A2994 RMK A01 T02970159  RH  045%=      5-min Rain = 0
KSP1 141715Z 21010G16KT 30/16 A2994 RMK A01 T03030157  RH  043%=      5-min Rain = 0
KSP1 141720Z 22010G15KT 31/15 A2994 RMK A01 T03060153  RH  042%=      5-min Rain = 0
KSP1 141725Z 20008G15KT 30/15 A2994 RMK A01 T03030154  RH  042%=      5-min Rain = 0
KSP1 141730Z 20009G14KT 30/16 A2993 RMK A01 T03020155  RH  043%=      5-min Rain = 0
KSP1 141735Z 21010KT 31/15 A2993 RMK A01 T03050150  RH  041%=      5-min Rain = 0
KSP1 141740Z 18011G17KT 31/15 A2993 RMK A01 T03080153  RH  041%=      5-min Rain = 0
KSP1 141745Z 22010KT 31/15 A2993 RMK A01 T03100146  RH  039%=      5-min Rain = 0
KSP1 141750Z 19007G13KT 31/15 A2993 RMK A01 T03100148  RH  039%=      5-min Rain = 0
KSP1 141755Z 20010G16KT 31/15 A2992 RMK A01 T03110148  RH  039%=      5-min Rain = 0
KSP1 141800Z 19009KT 31/15 A2992 RMK A01 T03100147  RH  039%=      5-min Rain = 0
KSP1 141805Z 20006KT 31/15 A2992 RMK A01 T03110145  RH  038%=      5-min Rain = 0
KSP1 141810Z 22007KT 31/14 A2992 RMK A01 T03120144  RH  038%=      5-min Rain = 0
KSP1 141815Z 22008KT 32/14 A2991 RMK A01 T03150139  RH  036%=      5-min Rain = 0
KSP1 141820Z 19007G12KT 32/13 A2991 RMK A01 T03200130  RH  033%=      5-min Rain = 0
KSP1 141825Z 16006KT 32/12 A2991 RMK A01 T03200124  RH  031%=      5-min Rain = 0
KSP1 141830Z 21006KT 32/13 A2991 RMK A01 T03220125  RH  031%=      5-min Rain = 0
KSP1 141835Z 20007G12KT 33/13 A2991 RMK A01 T03250134  RH  033%=      5-min Rain = 0
KSP1 141840Z 18008G16KT 33/14 A299 RMK A01 T03290135  RH  032%=      5-min Rain = 0
KSP1 141845Z 17007G12KT 33/14 A299 RMK A01 T03290135  RH  032%=      5-min Rain = 0
KSP1 141850Z 21006G13KT 33/14 A299 RMK A01 T03280137  RH  033%=      5-min Rain = 0
KSP1 141855Z 21009G15KT 33/13 A299 RMK A01 T03280132  RH  032%=      5-min Rain = 0
KSP1 141900Z 20009G15KT 33/13 A299 RMK A01 T03280131  RH  032%=      5-min Rain = 0
KSP1 141905Z 20006KT 33/14 A299 RMK A01 T03270135  RH  032%=      5-min Rain = 0
KSP1 141910Z 18009G14KT 33/13 A299 RMK A01 T03310134  RH  032%=      5-min Rain = 0
KSP1 141915Z 20009G14KT 33/13 A299 RMK A01 T03340128  RH  030%=      5-min Rain = 0
KSP1 141920Z 21006G12KT 33/13 A2989 RMK A01 T03340129  RH  030%=      5-min Rain = 0
KSP1 141925Z 21011G17KT 34/13 A2989 RMK A01 T03350130  RH  030%=      5-min Rain = 0
KSP1 141930Z 22008G14KT 34/13 A2989 RMK A01 T03360132  RH  030%=      5-min Rain = 0
KSP1 141935Z 22006G14KT 34/13 A2989 RMK A01 T03400131  RH  030%=      5-min Rain = 0
KSP1 141940Z 23009G14KT 34/13 A2988 RMK A01 T03440131  RH  029%=      5-min Rain = 0
KSP1 141945Z 21008KT 34/13 A2988 RMK A01 T03420128  RH  029%=      5-min Rain = 0
KSP1 141950Z 18006G12KT 34/13 A2988 RMK A01 T03360125  RH  029%=      5-min Rain = 0
KSP1 141955Z 20010G15KT 34/12 A2987 RMK A01 T03360124  RH  029%=      5-min Rain = 0
KSP1 142000Z 20010G15KT 34/13 A2987 RMK A01 T03360125  RH  029%=      5-min Rain = 0
KSP1 142005Z 18008G15KT 34/13 A2987 RMK A01 T03360127  RH  029%=      5-min Rain = 0
KSP1 142010Z 19012G17KT 34/13 A2987 RMK A01 T03360133  RH  031%=      5-min Rain = 0
KSP1 142015Z 16008G13KT 34/13 A2987 RMK A01 T03380131  RH  030%=      5-min Rain = 0
KSP1 142020Z 16009G14KT 34/12 A2986 RMK A01 T03380123  RH  028%=      5-min Rain = 0
KSP1 142025Z 16008G13KT 34/12 A2985 RMK A01 T03420117  RH  026%=      5-min Rain = 0
KSP1 142030Z 19009KT 34/13 A2985 RMK A01 T03410127  RH  028%=      5-min Rain = 0
KSP1 142035Z 19007G12KT 34/13 A2985 RMK A01 T03390130  RH  029%=      5-min Rain = 0
KSP1 142040Z 22008KT 34/13 A2984 RMK A01 T03380130  RH  030%=      5-min Rain = 0
KSP1 142045Z 21008KT 33/13 A2984 RMK A01 T03340131  RH  030%=      5-min Rain = 0
KSP1 142050Z 19006KT 33/13 A2983 RMK A01 T03330131  RH  031%=      5-min Rain = 0
KSP1 142055Z 19007G12KT 33/13 A2983 RMK A01 T03340132  RH  031%=      5-min Rain = 0
KSP1 142100Z 19007G12KT 33/14 A2982 RMK A01 T03280138  RH  033%=      5-min Rain = 0
KSP1 142105Z 22007KT 32/14 A2982 RMK A01 T03230138  RH  034%=      5-min Rain = 0
KSP1 142110Z 22005KT 32/13 A2981 RMK A01 T03220132  RH  033%=      5-min Rain = 0
KSP1 142115Z 22008KT 32/13 A298 RMK A01 T03240126  RH  031%=      5-min Rain = 0
KSP1 142120Z 21008KT 33/12 A2979 RMK A01 T03250121  RH  030%=      5-min Rain = 0
KSP1 142125Z 21007KT 33/13 A298 RMK A01 T03260132  RH  032%=      5-min Rain = 0
KSP1 142130Z 20007G12KT 33/13 A2981 RMK A01 T03300125  RH  030%=      5-min Rain = 0
KSP1 142135Z 17011KT 33/13 A2981 RMK A01 T03280126  RH  030%=      5-min Rain = 0
KSP1 142140Z 16014G26KT 32/13 A2981 RMK A01 T03190129  RH  033%=      5-min Rain = 0
KSP1 142145Z 15024G37KT 28/14 A2982 RMK A01 T02750144  RH  047%=      5-min Rain = 0
KSP1 142150Z 15017G25KT 25/15 A2982 RMK A01 T02490152  RH  057%=      5-min Rain = 0
KSP1 142155Z 14019G28KT 24/15 A2982 RMK A01 T02440153  RH  059%=      5-min Rain = 0
KSP1 142200Z 13016G22KT 25/15 A2982 RMK A01 T02480152  RH  058%=      5-min Rain = 0
KSP1 142205Z 14019G29KT 25/15 A2982 RMK A01 T02520148  RH  055%=      5-min Rain = 0
KSP1 142210Z 13016G24KT 25/15 A2982 RMK A01 T02500146  RH  055%=      5-min Rain = 0
KSP1 142215Z 13018G29KT 25/14 A2983 RMK A01 T02470138  RH  053%=      5-min Rain = 0
KSP1 142220Z 13019G28KT 24/14 A2982 RMK A01 T02440137  RH  053%=      5-min Rain = 0
KSP1 142225Z 13018G29KT 24/14 A2981 RMK A01 T02420138  RH  054%=      5-min Rain = 0
KSP1 142230Z 13014G26KT 25/13 A2981 RMK A01 T02510126  RH  048%=      5-min Rain = 0
KSP1 142235Z 13015G25KT 27/10 A2981 RMK A01 T02670104  RH  037%=      5-min Rain = 0
KSP1 142240Z 12017G28KT 28/09 A2981 RMK A01 T02760088  RH  032%=      5-min Rain = 0
KSP1 142245Z 12015G23KT 28/09 A2981 RMK A01 T02770087  RH  031%=      5-min Rain = 0
KSP1 142250Z 12016G27KT 27/09 A2981 RMK A01 T02740089  RH  032%=      5-min Rain = 0
KSP1 142255Z 11018G30KT 27/11 A2981 RMK A01 T02720107  RH  037%=      5-min Rain = 0
KSP1 142300Z 12016G25KT 27/10 A2981 RMK A01 T02710098  RH  035%=      5-min Rain = 0
KSP1 142305Z 12014G24KT 27/09 A2981 RMK A01 T02680088  RH  033%=      5-min Rain = 0
KSP1 142310Z 13011G18KT 26/09 A2981 RMK A01 T02630089  RH  034%=      5-min Rain = 0
KSP1 142315Z 13011G18KT 26/09 A2981 RMK A01 T02600094  RH  036%=      5-min Rain = 0
KSP1 142320Z 12010G16KT 26/10 A2981 RMK A01 T02600096  RH  037%=      5-min Rain = 0
KSP1 142325Z 12009G14KT 26/09 A298 RMK A01 T02630089  RH  035%=      5-min Rain = 0
KSP1 142330Z 12011G16KT 27/08 A298 RMK A01 T02690082  RH  032%=      5-min Rain = 0
KSP1 142335Z 12010G16KT 27/08 A2979 RMK A01 T02720083  RH  031%=      5-min Rain = 0
KSP1 142340Z 12009G15KT 27/09 A2979 RMK A01 T02720090  RH  033%=      5-min Rain = 0
KSP1 142345Z 13009G15KT 27/10 A2979 RMK A01 T02720103  RH  036%=      5-min Rain = 0
KSP1 142350Z 12009G15KT 27/12 A2979 RMK A01 T02730120  RH  040%=      5-min Rain = 0
KSP1 142355Z 12009G14KT 27/14 A2979 RMK A01 T02740136  RH  044%=      5-min Rain = 0
KSP1 150000Z 13009KT 28/15 A2979 RMK A01 T02760146  RH  047%=      5-min Rain = 0
KSP1 150005Z 13008KT 28/16 A2979 RMK A01 T02790155  RH  049%=      5-min Rain = 0
KSP1 150010Z 12009G14KT 28/16 A2979 RMK A01 T02820159  RH  050%=      5-min Rain = 0
KSP1 150015Z 11008G13KT 28/16 A2979 RMK A01 T02820161  RH  050%=      5-min Rain = 0
KSP1 150020Z 11008G13KT 28/16 A298 RMK A01 T02790163  RH  052%=      5-min Rain = 0
KSP1 150025Z 10009G14KT 28/17 A298 RMK A01 T02770167  RH  054%=      5-min Rain = 0
KSP1 150030Z 08007KT 28/17 A2981 RMK A01 T02780170  RH  055%=      5-min Rain = 0
KSP1 150035Z 02010G17KT 27/16 A2982 RMK A01 T02700158  RH  053%=      5-min Rain = 0
KSP1 150040Z 01015G23KT 25/15 A2983 RMK A01 T02510145  RH  054%=      5-min Rain = 0
KSP1 150045Z 00015G20KT 23/13 A2984 RMK A01 T02320132  RH  055%=      5-min Rain = 0
KSP1 150050Z 03012G17KT 23/13 A2984 RMK A01 T02320132  RH  055%=      5-min Rain = 0
KSP1 150055Z 03011KT 24/13 A2985 RMK A01 T02360133  RH  055%=      5-min Rain = 0
KSP1 150100Z 02012G19KT 24/13 A2986 RMK A01 T02360133  RH  055%=      5-min Rain = 0
KSP1 150105Z 01015G23KT 23/13 A2987 RMK A01 T02290131  RH  056%=      5-min Rain = 0
KSP1 150110Z 01013KT 22/13 A2987 RMK A01 T02230130  RH  058%=      5-min Rain = 0
KSP1 150115Z 02011G17KT 22/13 A2988 RMK A01 T02220129  RH  058%=      5-min Rain = 0
KSP1 150120Z 02011G16KT 22/13 A2988 RMK A01 T02240128  RH  056%=      5-min Rain = 0
KSP1 150125Z 04011G18KT 23/12 A2988 RMK A01 T02290123  RH  053%=      5-min Rain = 0
KSP1 150130Z 04012KT 24/12 A2987 RMK A01 T02370115  RH  048%=      5-min Rain = 0
KSP1 150135Z 05012G17KT 25/11 A2987 RMK A01 T02450110  RH  044%=      5-min Rain = 0
KSP1 150140Z 06012KT 25/11 A2987 RMK A01 T02500108  RH  042%=      5-min Rain = 0
KSP1 150145Z 06011G16KT 25/11 A2988 RMK A01 T02460109  RH  044%=      5-min Rain = 0
KSP1 150150Z 07009G14KT 24/12 A2988 RMK A01 T02370115  RH  048%=      5-min Rain = 0
KSP1 150155Z 07010KT 23/12 A2988 RMK A01 T02330116  RH  049%=      5-min Rain = 0
KSP1 150200Z 07010KT 23/11 A2988 RMK A01 T02330113  RH  049%=      5-min Rain = 0
KSP1 150205Z 08008G13KT 23/11 A2988 RMK A01 T02340108  RH  047%=      5-min Rain = 0
KSP1 150210Z 08009KT 24/11 A2989 RMK A01 T02360105  RH  045%=      5-min Rain = 0
KSP1 150215Z 08010G15KT 24/10 A2989 RMK A01 T02360104  RH  045%=      5-min Rain = 0
KSP1 150220Z 08012KT 24/10 A2989 RMK A01 T02400095  RH  041%=      5-min Rain = 0
KSP1 150225Z 08010G18KT 24/09 A2989 RMK A01 T02430093  RH  040%=      5-min Rain = 0
KSP1 150230Z 08012G20KT 25/09 A2989 RMK A01 T02450092  RH  039%=      5-min Rain = 0
KSP1 150235Z 09012G17KT 25/09 A2989 RMK A01 T02460091  RH  039%=      5-min Rain = 0
KSP1 150240Z 09011G17KT 25/09 A2989 RMK A01 T02460091  RH  038%=      5-min Rain = 0
KSP1 150245Z 09011G16KT 25/09 A2989 RMK A01 T02450092  RH  039%=      5-min Rain = 0
KSP1 150250Z 09012G17KT 24/09 A2989 RMK A01 T02430094  RH  040%=      5-min Rain = 0
KSP1 150255Z 10009KT 24/09 A2989 RMK A01 T02430094  RH  040%=      5-min Rain = 0
KSP1 150300Z 10009G14KT 24/10 A2989 RMK A01 T02430095  RH  041%=      5-min Rain = 0
KSP1 150305Z 10011G16KT 24/10 A2989 RMK A01 T02420099  RH  042%=      5-min Rain = 0
KSP1 150310Z 10011G16KT 24/10 A299 RMK A01 T02410102  RH  043%=      5-min Rain = 0
KSP1 150315Z 11009KT 24/11 A299 RMK A01 T02390105  RH  044%=      5-min Rain = 0
KSP1 150320Z 12008G13KT 24/11 A299 RMK A01 T02370109  RH  046%=      5-min Rain = 0
KSP1 150325Z 13006KT 24/11 A299 RMK A01 T02370113  RH  048%=      5-min Rain = 0
KSP1 150330Z 12008KT 24/12 A299 RMK A01 T02360116  RH  049%=      5-min Rain = 0
KSP1 150335Z 13007G12KT 24/12 A299 RMK A01 T02360118  RH  049%=      5-min Rain = 0
KSP1 150340Z 13008KT 24/12 A299 RMK A01 T02350119  RH  050%=      5-min Rain = 0
KSP1 150345Z 12007G13KT 24/12 A299 RMK A01 T02350120  RH  050%=      5-min Rain = 0
KSP1 150350Z 13007KT 24/12 A299 RMK A01 T02350121  RH  051%=      5-min Rain = 0
KSP1 150355Z 14008G14KT 23/12 A2991 RMK A01 T02330121  RH  051%=      5-min Rain = 0
KSP1 150400Z 14007G12KT 23/12 A2991 RMK A01 T02300121  RH  052%=      5-min Rain = 0
KSP1 150405Z 13006KT 23/12 A2991 RMK A01 T02270122  RH  053%=      5-min Rain = 0
KSP1 150410Z 13006KT 23/12 A2991 RMK A01 T02270123  RH  054%=      5-min Rain = 0
KSP1 150415Z 13007KT 23/12 A2991 RMK A01 T02290124  RH  053%=      5-min Rain = 0
KSP1 150420Z 14007KT 23/12 A2991 RMK A01 T02280124  RH  054%=      5-min Rain = 0
KSP1 150425Z 13006KT 23/12 A2991 RMK A01 T02280124  RH  054%=      5-min Rain = 0
KSP1 150430Z 14007KT 23/12 A299 RMK A01 T02290124  RH  054%=      5-min Rain = 0
KSP1 150435Z 15009KT 23/12 A299 RMK A01 T02280124  RH  054%=      5-min Rain = 0
KSP1 150440Z 15008KT 23/12 A299 RMK A01 T02270124  RH  054%=      5-min Rain = 0
KSP1 150445Z 15008KT 23/12 A299 RMK A01 T02260124  RH  054%=      5-min Rain = 0
KSP1 150450Z 15008G14KT 23/12 A299 RMK A01 T02270123  RH  054%=      5-min Rain = 0
KSP1 150455Z 14009G15KT 23/12 A299 RMK A01 T02270122  RH  053%=      5-min Rain = 0

Page generated in 0.0097 seconds.